Fort Smith Regional Airport (KFSM) Information & Weather

WARNING: the data listed below is for informational purposes only and should be confirmed from official sources. Data presented here on this page may be out of date, incomplete or wrong.

Name: Fort Smith Regional Airport
Identifier: KFSM

Coord: 35.3366N 94.3674W
Var: 2°E

Country: United States
Municipality: FT SMITH, AR
Time Zone: (GMT-06:00) America/Chicago

Station Elevation: 469 ft
Pressure Altitude: 406 ft
Density Altitude: 2507 ft
Freezing Level: 15621 ft

Civil Twilight
Morning: 11:23 UTC  (05:23 local)
Evening: 01:10 UTC  (19:10 local)

Flight Category: VFR (about 1 month ago)

METAR KFSM 312353Z 12006KT 10SM FEW070 30/18 A2998 RMK AO2 SLP145 T03000178 10333 20300 55001= [toggle past 4 hours]

TAF KFSM 011120Z 0112/0212 06006KT P6SM SKC FM011800 13008KT P6SM SKC FM020600 06004KT P6SM SKC=

Upper Winds

Source   Valid 375 1000 2000 2500 3000 5000 6000 8000 10000 12000 14000 16000 18000 21000 24000 26000 30000 34000 39000 44000 52000 60000
GFS 0115/0118 1403+29 1504+27 1606+25 1811+24 1714+22 1717+18 1614+14 1512+09 1710+07 1907+04 1906+00 1706-04 1608-09 1408-14 1011-20 0814-27 0913-35 1409-45 1815-55 1908-60 1507-64 0802-64

SIGMET/AIRMET

None within 25nm.

PIREP

None within 25nm.

NOTAM

None within 25nm.

Runway Data

Frequencies

Nearby Airports

Nearby Navaids